Time;durP1;ratioP1;P1;durP2;ratioP2;P2;SDS_P1;SDS_P2;PMS_P1;PMS_P2;Temp;Humidity;BMP_temperature;BMP_pressure;BME280_temperature;BME280_humidity;BME280_pressure;Samples;Min_cycle;Max_cycle;Signal;HPM_P1;HPM_P2
2021/11/20 00:00:15;;;;;;;;;;;;;;;21.12;35.75;96907.94;1024292;29;686;-59
2021/11/20 00:00:45;;;;;;;;;;;;;;;21.12;35.60;96907.94;1022800;28;827;-60
2021/11/20 00:01:16;;;;;;;;;;;;;;;21.12;35.70;96900.03;1028096;28;1037;-61
2021/11/20 00:01:47;;;;;;;;;;;;;;;21.11;35.53;96904.50;1027787;28;1995;-61
2021/11/20 00:02:19;;;;;;;;;;;;;;;21.12;36.06;96906.09;1027513;28;758;-60
2021/11/20 00:02:49;;;;;;;;;;;;;;;21.11;35.55;96903.69;1031564;28;872;-59
2021/11/20 00:03:20;;;;;;;;;;;;;;;21.12;36.09;96905.28;1028140;28;2442;-58
2021/11/20 00:03:50;;;;;;;;;;;;;;;21.11;35.60;96901.84;1027866;28;811;-61
2021/11/20 00:04:20;;;;;;;;;;;;;;;21.13;35.76;96906.88;1023479;29;1238;-62
2021/11/20 00:04:51;;;;;;;;;;;;;;;21.11;35.52;96901.06;1023820;28;1241;-61
2021/11/20 00:05:23;;;;;;;;;;;;;;;21.11;35.66;96907.13;1028054;28;833;-60
2021/11/20 00:05:54;;;;;;;;;;;;;;;21.11;35.67;96908.97;1028201;28;837;-60
2021/11/20 00:06:25;;;;;;;;;;;;;;;21.11;35.98;96901.84;1031998;28;769;-60
2021/11/20 00:06:56;;;;;;;;;;;;;;;21.12;35.68;96905.28;1027830;28;999;-59
2021/11/20 00:07:26;;;;;;;;;;;;;;;21.11;35.63;96906.31;1024047;29;754;-61
2021/11/20 00:07:57;;;;;;;;;;;;;;;21.10;35.28;96907.38;1023695;28;737;-59
2021/11/20 00:08:27;;;;;;;;;;;;;;;21.10;35.76;96905.56;1024153;28;1015;-60
2021/11/20 00:08:58;;;;;;;;;;;;;;;21.11;35.42;96919.50;1027980;28;904;-60
2021/11/20 00:09:28;;;;;;;;;;;;;;;21.12;35.41;96913.19;1028249;28;1332;-60
2021/11/20 00:09:59;;;;;;;;;;;;;;;21.11;35.60;96914.22;1023970;29;795;-60
2021/11/20 00:10:30;;;;;;;;;;;;;;;21.10;35.71;96913.47;1023974;29;693;-60
2021/11/20 00:11:01;;;;;;;;;;;;;;;21.11;35.64;96909.75;1024329;28;809;-61
2021/11/20 00:11:32;;;;;;;;;;;;;;;21.11;35.66;96908.97;1024076;29;936;-61
2021/11/20 00:12:04;;;;;;;;;;;;;;;21.11;35.80;96920.31;1023251;29;968;-61
2021/11/20 00:12:34;;;;;;;;;;;;;;;21.11;35.69;96908.97;1019306;29;1075;-60
2021/11/20 00:13:08;;;;;;;;;;;;;;;21.11;35.47;96912.41;1015379;29;1858;-61
2021/11/20 00:13:38;;;;;;;;;;;;;;;21.12;35.58;96913.19;1019914;29;976;-60
2021/11/20 00:14:10;;;;;;;;;;;;;;;21.11;35.74;96908.97;1023851;28;817;-61
2021/11/20 00:14:40;;;;;;;;;;;;;;;21.11;35.70;96909.75;1027655;28;856;-61
2021/11/20 00:15:12;;;;;;;;;;;;;;;21.12;35.74;96903.47;1028043;28;1238;-61
2021/11/20 00:15:47;;;;;;;;;;;;;;;21.12;35.67;96913.19;1023964;29;819;-61
2021/11/20 00:16:18;;;;;;;;;;;;;;;21.12;35.79;96907.94;1019832;29;581;-61
2021/11/20 00:16:48;;;;;;;;;;;;;;;21.11;35.69;96908.97;1021314;29;949;-58
2021/11/20 00:17:19;;;;;;;;;;;;;;;21.10;35.76;96915.28;1024780;28;955;-61
2021/11/20 00:17:49;;;;;;;;;;;;;;;21.10;35.66;96904.75;1026915;28;999;-61
2021/11/20 00:18:20;;;;;;;;;;;;;;;21.10;35.98;96905.56;1028015;28;805;-61
2021/11/20 00:18:50;;;;;;;;;;;;;;;21.11;36.11;96904.50;1027617;28;849;-59
2021/11/20 00:19:22;;;;;;;;;;;;;;;21.11;35.48;96906.31;1028245;28;825;-61
2021/11/20 00:19:52;;;;;;;;;;;;;;;21.11;35.77;96898.41;1028058;28;1015;-59
2021/11/20 00:20:23;;;;;;;;;;;;;;;21.11;35.70;96907.13;1024146;28;973;-61
2021/11/20 00:20:55;;;;;;;;;;;;;;;21.11;35.46;96907.13;1027937;28;799;-60
2021/11/20 00:21:46;;;;;;;;;;;;;;;21.11;35.58;96912.41;1027871;28;807;-61
2021/11/20 00:22:24;;;;;;;;;;;;;;;21.10;35.84;96907.38;1030452;28;1215;-61
2021/11/20 00:22:55;;;;;;;;;;;;;;;21.10;35.78;96905.56;1027678;28;1415;-59
2021/11/20 00:23:27;;;;;;;;;;;;;;;21.12;35.59;96907.94;1027715;28;635;-61
2021/11/20 00:23:58;;;;;;;;;;;;;;;21.11;35.59;96908.97;1027981;28;762;-60
2021/11/20 00:24:30;;;;;;;;;;;;;;;21.10;35.60;96899.47;1027610;28;722;-61
2021/11/20 00:25:06;;;;;;;;;;;;;;;21.11;35.68;96901.06;1032392;28;1329;-61
2021/11/20 00:25:44;;;;;;;;;;;;;;;21.11;35.76;96903.69;1027994;28;777;-61
2021/11/20 00:26:15;;;;;;;;;;;;;;;21.11;35.67;96903.69;1024027;29;1035;-61
2021/11/20 00:26:45;;;;;;;;;;;;;;;21.11;35.52;96907.13;1023723;29;1019;-60
2021/11/20 00:27:21;;;;;;;;;;;;;;;21.11;35.81;96908.97;1025294;28;758;-61
2021/11/20 00:27:53;;;;;;;;;;;;;;;21.10;35.61;96905.56;1028766;28;853;-61
2021/11/20 00:28:41;;;;;;;;;;;;;;;21.11;35.67;96908.97;1032239;28;758;-60
2021/11/20 00:29:47;;;;;;;;;;;;;;;21.10;35.83;96908.19;1028105;28;730;-61
2021/11/20 00:30:24;;;;;;;;;;;;;;;21.10;35.61;96910.81;1028084;28;832;-59
2021/11/20 00:30:57;;;;;;;;;;;;;;;21.10;35.33;96910.03;1023365;29;1584;-60
2021/11/20 00:31:32;;;;;;;;;;;;;;;21.10;35.57;96900.28;1020200;29;988;-60
2021/11/20 00:32:03;;;;;;;;;;;;;;;21.09;35.28;96896.03;1020034;29;746;-60
2021/11/20 00:32:34;;;;;;;;;;;;;;;21.09;35.61;96896.03;1016878;29;1237;-58
2021/11/20 00:33:05;;;;;;;;;;;;;;;21.10;35.69;96897.63;1020767;29;1019;-59
2021/11/20 00:33:36;;;;;;;;;;;;;;;21.10;35.46;96902.91;1023615;29;1011;-60
2021/11/20 00:34:10;;;;;;;;;;;;;;;21.10;35.53;96894.19;1020431;29;790;-61
2021/11/20 00:34:41;;;;;;;;;;;;;;;21.11;35.59;96895.78;1023965;28;685;-61
2021/11/20 00:35:12;;;;;;;;;;;;;;;21.11;35.55;96903.69;1027845;28;1246;-60
2021/11/20 00:35:42;;;;;;;;;;;;;;;21.10;35.60;96897.63;1028773;28;883;-61
2021/11/20 00:36:13;;;;;;;;;;;;;;;21.11;35.66;96899.22;1031943;28;842;-61
2021/11/20 00:36:43;;;;;;;;;;;;;;;21.10;35.41;96897.63;1031948;28;876;-60
2021/11/20 00:37:14;;;;;;;;;;;;;;;21.10;35.68;96896.84;1032435;28;785;-60
2021/11/20 00:37:45;;;;;;;;;;;;;;;21.10;35.33;96895.00;1027797;28;817;-60
2021/11/20 00:38:15;;;;;;;;;;;;;;;21.11;35.66;96890.50;1028146;28;1322;-61
2021/11/20 00:38:45;;;;;;;;;;;;;;;21.11;35.67;96887.88;1027693;28;793;-61
2021/11/20 00:39:17;;;;;;;;;;;;;;;21.11;35.92;96888.66;1028106;28;794;-61
2021/11/20 00:39:47;;;;;;;;;;;;;;;21.11;35.83;96887.88;1027953;28;1031;-60
2021/11/20 00:40:20;;;;;;;;;;;;;;;21.11;35.58;96893.94;1028055;28;1011;-61
2021/11/20 00:40:54;;;;;;;;;;;;;;;21.11;35.74;96888.66;1024030;29;1531;-60
2021/11/20 00:41:26;;;;;;;;;;;;;;;21.10;35.48;96887.09;1024944;28;743;-60
2021/11/20 00:41:56;;;;;;;;;;;;;;;21.10;35.55;96892.38;1023877;29;1938;-60
2021/11/20 00:42:27;;;;;;;;;;;;;;;21.11;35.92;96891.31;1024709;28;822;-57
2021/11/20 00:42:57;;;;;;;;;;;;;;;21.11;35.63;96890.50;1027801;28;1352;-60
2021/11/20 00:43:28;;;;;;;;;;;;;;;21.11;35.75;96893.13;1027719;28;1152;-61
2021/11/20 00:43:58;;;;;;;;;;;;;;;21.09;35.36;96885.50;1023900;29;1179;-61
2021/11/20 00:44:29;;;;;;;;;;;;;;;21.10;35.60;96886.28;1023476;29;790;-60
2021/11/20 00:44:59;;;;;;;;;;;;;;;21.11;35.77;96887.88;1023908;29;1245;-61
2021/11/20 00:45:30;;;;;;;;;;;;;;;21.11;35.52;96893.13;1023786;28;1051;-61
2021/11/20 00:46:00;;;;;;;;;;;;;;;21.10;35.55;96894.19;1032359;28;772;-60
2021/11/20 00:46:31;;;;;;;;;;;;;;;21.12;35.63;96894.75;1032391;28;842;-59
2021/11/20 00:47:02;;;;;;;;;;;;;;;21.11;35.69;96893.13;1028083;28;876;-60
2021/11/20 00:47:32;;;;;;;;;;;;;;;21.11;35.73;96895.78;1027837;28;1036;-61
2021/11/20 00:48:03;;;;;;;;;;;;;;;21.11;35.75;96893.13;1027264;28;880;-60
2021/11/20 00:48:33;;;;;;;;;;;;;;;21.11;35.74;96899.22;1027884;28;793;-61
2021/11/20 00:49:04;;;;;;;;;;;;;;;21.11;35.55;96893.94;1032463;28;851;-61
2021/11/20 00:49:34;;;;;;;;;;;;;;;21.11;35.71;96898.41;1032120;28;1070;-61
2021/11/20 00:50:05;;;;;;;;;;;;;;;21.11;35.50;96901.06;1032486;28;1004;-59
2021/11/20 00:50:36;;;;;;;;;;;;;;;21.10;35.84;96902.13;1032248;28;785;-60
2021/11/20 00:51:08;;;;;;;;;;;;;;;21.11;35.55;96895.78;1031894;28;952;-60
2021/11/20 00:51:38;;;;;;;;;;;;;;;21.11;35.60;96895.78;1032183;28;987;-60
2021/11/20 00:52:08;;;;;;;;;;;;;;;21.10;35.56;96897.63;1032228;28;807;-59
2021/11/20 00:52:38;;;;;;;;;;;;;;;21.10;35.80;96902.91;1032166;28;730;-60
2021/11/20 00:53:09;;;;;;;;;;;;;;;21.10;35.24;96900.28;1032575;28;808;-60
2021/11/20 00:53:39;;;;;;;;;;;;;;;21.11;35.59;96898.41;1027539;28;983;-60
2021/11/20 00:54:10;;;;;;;;;;;;;;;21.11;35.89;96898.41;1027740;28;809;-61
2021/11/20 00:54:41;;;;;;;;;;;;;;;21.08;35.61;96897.88;1027364;28;715;-61
2021/11/20 00:55:13;;;;;;;;;;;;;;;21.10;35.62;96905.56;1028015;28;1233;-60
2021/11/20 00:55:43;;;;;;;;;;;;;;;21.10;35.64;96902.91;1032216;28;905;-60
2021/11/20 00:56:14;;;;;;;;;;;;;;;21.10;35.63;96900.28;1027924;28;805;-62
2021/11/20 00:56:45;;;;;;;;;;;;;;;21.10;35.69;96902.13;1020067;29;902;-60
2021/11/20 00:57:15;;;;;;;;;;;;;;;21.11;35.92;96903.69;1019761;29;794;-60
2021/11/20 00:57:46;;;;;;;;;;;;;;;21.10;35.38;96900.28;1019661;29;782;-61
2021/11/20 00:58:16;;;;;;;;;;;;;;;21.10;35.53;96907.38;1024215;28;948;-62
2021/11/20 00:58:46;;;;;;;;;;;;;;;21.10;35.94;96905.56;1031961;28;964;-61
2021/11/20 00:59:17;;;;;;;;;;;;;;;21.10;35.25;96904.75;1032412;28;789;-61
2021/11/20 00:59:47;;;;;;;;;;;;;;;21.11;35.64;96909.75;1032119;28;868;-61
2021/11/20 01:00:19;;;;;;;;;;;;;;;21.08;35.60;96905.78;1027914;28;1009;-61
2021/11/20 01:00:52;;;;;;;;;;;;;;;21.10;35.42;96905.56;1028033;28;786;-61
2021/11/20 01:01:24;;;;;;;;;;;;;;;21.08;35.36;96904.19;1024009;29;1015;-61
2021/11/20 01:01:57;;;;;;;;;;;;;;;21.10;35.55;96902.13;1024469;28;1891;-60
2021/11/20 01:02:28;;;;;;;;;;;;;;;21.09;35.83;96906.56;1027834;28;773;-61
2021/11/20 01:02:58;;;;;;;;;;;;;;;21.09;35.67;96901.31;1027807;28;844;-60
2021/11/20 01:03:29;;;;;;;;;;;;;;;21.08;35.55;96900.50;1032414;28;1003;-61
2021/11/20 01:03:59;;;;;;;;;;;;;;;21.09;35.69;96906.56;1027332;28;1655;-59
2021/11/20 01:04:30;;;;;;;;;;;;;;;21.08;35.58;96903.13;1027363;28;769;-59
2021/11/20 01:05:00;;;;;;;;;;;;;;;21.09;35.45;96901.31;1023994;29;1257;-60
2021/11/20 01:05:31;;;;;;;;;;;;;;;21.10;35.67;96907.38;1024014;28;707;-60
2021/11/20 01:06:01;;;;;;;;;;;;;;;21.08;35.54;96900.50;1023511;29;1026;-61
2021/11/20 01:06:31;;;;;;;;;;;;;;;21.10;35.82;96896.84;1024098;28;928;-61
2021/11/20 01:07:02;;;;;;;;;;;;;;;21.09;35.68;96901.31;1027654;28;782;-61
2021/11/20 01:07:33;;;;;;;;;;;;;;;21.08;35.69;96898.94;1028128;28;805;-58
2021/11/20 01:08:04;;;;;;;;;;;;;;;21.09;35.71;96898.66;1032144;28;800;-61
2021/11/20 01:08:36;;;;;;;;;;;;;;;21.09;35.66;96903.94;1027955;28;813;-61
2021/11/20 01:09:08;;;;;;;;;;;;;;;21.10;35.63;96896.84;1027841;28;808;-59
2021/11/20 01:09:40;;;;;;;;;;;;;;;21.10;35.42;96894.19;1028028;28;936;-60
2021/11/20 01:10:12;;;;;;;;;;;;;;;21.10;35.57;96902.91;1024599;28;816;-59
2021/11/20 01:10:44;;;;;;;;;;;;;;;21.10;35.63;96899.47;1019799;29;1394;-61
2021/11/20 01:11:26;;;;;;;;;;;;;;;21.10;35.47;96904.75;1020019;29;1015;-61
2021/11/20 01:11:58;;;;;;;;;;;;;;;21.10;35.62;96899.47;1021819;29;1095;-60
2021/11/20 01:12:32;;;;;;;;;;;;;;;21.08;35.32;96897.88;1027620;28;904;-60
2021/11/20 01:13:03;;;;;;;;;;;;;;;21.10;35.71;96899.47;1027240;28;1385;-58
2021/11/20 01:13:33;;;;;;;;;;;;;;;21.10;35.78;96896.84;1028164;28;813;-61
2021/11/20 01:14:05;;;;;;;;;;;;;;;21.10;35.49;96896.84;1023697;29;1039;-59
2021/11/20 01:14:35;;;;;;;;;;;;;;;21.10;35.35;96896.84;1023498;28;1086;-60
2021/11/20 01:15:07;;;;;;;;;;;;;;;21.10;35.89;96897.63;1023895;29;1206;-61
2021/11/20 01:15:39;;;;;;;;;;;;;;;21.10;35.55;96892.38;1024190;28;876;-61
2021/11/20 01:16:10;;;;;;;;;;;;;;;21.10;35.70;96892.38;1027769;28;824;-60
2021/11/20 01:16:41;;;;;;;;;;;;;;;21.10;35.50;96891.56;1028293;28;968;-61
2021/11/20 01:17:11;;;;;;;;;;;;;;;21.10;35.19;96891.56;1032220;28;1011;-62
2021/11/20 01:17:41;;;;;;;;;;;;;;;21.10;35.61;96896.84;1031664;28;739;-60
2021/11/20 01:18:12;;;;;;;;;;;;;;;21.10;35.64;96895.00;1032317;28;793;-60
2021/11/20 01:18:42;;;;;;;;;;;;;;;21.10;35.27;96888.94;1027383;28;1621;-60
2021/11/20 01:19:13;;;;;;;;;;;;;;;21.10;35.62;96891.56;1027862;28;944;-60
2021/11/20 01:19:43;;;;;;;;;;;;;;;21.09;35.43;96890.75;1027958;28;986;-61
2021/11/20 01:20:14;;;;;;;;;;;;;;;21.10;35.66;96891.56;1028061;28;794;-60
2021/11/20 01:20:44;;;;;;;;;;;;;;;21.10;35.84;96892.38;1032068;28;800;-60
2021/11/20 01:21:15;;;;;;;;;;;;;;;21.11;35.83;96893.13;1027598;28;833;-61
2021/11/20 01:21:45;;;;;;;;;;;;;;;21.10;35.83;96886.28;1023933;29;1898;-60
2021/11/20 01:22:16;;;;;;;;;;;;;;;21.11;35.60;96885.22;1023685;29;1008;-61
2021/11/20 01:22:46;;;;;;;;;;;;;;;21.10;35.82;96881.03;1023839;28;794;-60
2021/11/20 01:23:17;;;;;;;;;;;;;;;21.10;35.69;96886.28;1027875;28;1018;-60
2021/11/20 01:23:48;;;;;;;;;;;;;;;21.10;35.49;96887.09;1027522;28;1035;-58
2021/11/20 01:24:18;;;;;;;;;;;;;;;21.09;35.60;96888.13;1026932;28;781;-60
2021/11/20 01:24:50;;;;;;;;;;;;;;;21.11;35.54;96885.22;1027525;28;1308;-61
2021/11/20 01:25:21;;;;;;;;;;;;;;;21.10;35.62;96878.38;1027849;28;1749;-60
2021/11/20 01:25:52;;;;;;;;;;;;;;;21.10;35.35;96883.66;1027513;28;1023;-59
2021/11/20 01:26:22;;;;;;;;;;;;;;;21.09;35.48;96882.84;1022691;28;860;-61
2021/11/20 01:26:53;;;;;;;;;;;;;;;21.09;35.57;96885.50;1027779;28;1042;-60
2021/11/20 01:27:23;;;;;;;;;;;;;;;21.10;35.49;96878.38;1032560;28;829;-59
2021/11/20 01:27:54;;;;;;;;;;;;;;;21.10;35.69;96883.66;1028659;28;793;-60
2021/11/20 01:28:25;;;;;;;;;;;;;;;21.09;35.50;96872.31;1028369;28;745;-59
2021/11/20 01:28:55;;;;;;;;;;;;;;;21.09;35.61;96882.84;1024838;29;1015;-60
2021/11/20 01:29:26;;;;;;;;;;;;;;;21.10;35.68;96876.56;1024504;28;801;-59
2021/11/20 01:29:56;;;;;;;;;;;;;;;21.08;35.72;96879.41;1028392;28;851;-60
2021/11/20 01:30:27;;;;;;;;;;;;;;;21.10;35.74;96881.03;1024768;28;984;-59
2021/11/20 01:30:57;;;;;;;;;;;;;;;21.10;35.56;96876.56;1024558;29;1390;-60
2021/11/20 01:31:28;;;;;;;;;;;;;;;21.09;35.77;96877.56;1024845;29;769;-58
2021/11/20 01:31:58;;;;;;;;;;;;;;;21.10;35.64;96875.75;1024797;28;1113;-60
2021/11/20 01:32:29;;;;;;;;;;;;;;;21.10;35.84;96875.75;1028362;28;1031;-60
2021/11/20 01:32:59;;;;;;;;;;;;;;;21.09;35.76;96874.94;1032110;28;1054;-59
2021/11/20 01:33:30;;;;;;;;;;;;;;;21.10;35.47;96870.47;1028719;28;888;-60
2021/11/20 01:34:00;;;;;;;;;;;;;;;21.10;35.63;96875.75;1024378;29;790;-59
2021/11/20 01:34:30;;;;;;;;;;;;;;;21.08;35.75;96873.38;1023557;29;1015;-61
2021/11/20 01:35:01;;;;;;;;;;;;;;;21.09;35.58;96874.94;1024455;28;1199;-59
2021/11/20 01:35:31;;;;;;;;;;;;;;;21.10;35.64;96870.47;1028583;28;848;-60
2021/11/20 01:36:01;;;;;;;;;;;;;;;21.10;35.27;96871.28;1028190;28;818;-60
2021/11/20 01:36:32;;;;;;;;;;;;;;;21.10;35.63;96867.84;1024613;29;1330;-60
2021/11/20 01:37:03;;;;;;;;;;;;;;;21.09;35.43;96869.66;1024577;29;813;-60
2021/11/20 01:37:35;;;;;;;;;;;;;;;21.10;35.75;96862.56;1024849;28;829;-59
2021/11/20 01:38:06;;;;;;;;;;;;;;;21.10;35.48;96875.75;1029029;28;813;-60
2021/11/20 01:38:36;;;;;;;;;;;;;;;21.08;35.39;96863.59;1028612;28;754;-61
2021/11/20 01:39:08;;;;;;;;;;;;;;;21.10;35.48;96870.47;1028488;28;1024;-59
2021/11/20 01:39:38;;;;;;;;;;;;;;;21.08;35.56;96868.88;1028195;28;955;-61
2021/11/20 01:40:10;;;;;;;;;;;;;;;21.10;35.43;96867.84;1024835;28;735;-60
2021/11/20 01:40:40;;;;;;;;;;;;;;;21.08;35.46;96868.88;1024586;29;1498;-61
2021/11/20 01:41:11;;;;;;;;;;;;;;;21.08;35.58;96868.09;1024187;29;991;-60
2021/11/20 01:41:42;;;;;;;;;;;;;;;21.10;35.32;96870.47;1020540;29;1891;-61
2021/11/20 01:42:14;;;;;;;;;;;;;;;21.10;35.53;96862.56;1020656;29;1023;-60
2021/11/20 01:42:44;;;;;;;;;;;;;;;21.08;35.58;96856.75;1024312;29;860;-59
2021/11/20 01:43:15;;;;;;;;;;;;;;;21.07;35.23;96863.84;1024802;28;972;-57
2021/11/20 01:43:49;;;;;;;;;;;;;;;21.08;35.40;96868.88;1028638;28;1043;-58
2021/11/20 01:44:21;;;;;;;;;;;;;;;21.08;35.61;96868.88;1028275;28;849;-60
2021/11/20 01:45:04;;;;;;;;;;;;;;;21.08;35.70;96867.28;1021185;29;1273;-60
2021/11/20 01:45:44;;;;;;;;;;;;;;;21.08;35.82;96868.88;1024620;29;829;-59
2021/11/20 01:46:17;;;;;;;;;;;;;;;21.10;35.67;96852.03;1024494;29;1015;-59
2021/11/20 01:46:49;;;;;;;;;;;;;;;21.09;35.56;96861.75;1027576;28;972;-60
2021/11/20 01:47:22;;;;;;;;;;;;;;;21.09;35.60;96861.75;1024393;29;1018;-59
2021/11/20 01:47:54;;;;;;;;;;;;;;;21.09;35.52;96853.84;1023832;29;836;-59
2021/11/20 01:48:40;;;;;;;;;;;;;;;21.09;35.54;96848.56;1021746;29;873;-60
2021/11/20 01:49:12;;;;;;;;;;;;;;;21.10;35.56;96854.66;1026801;28;844;-59
2021/11/20 01:49:46;;;;;;;;;;;;;;;21.10;35.13;96849.38;1028115;28;995;-60
2021/11/20 01:50:22;;;;;;;;;;;;;;;21.08;35.61;96847.78;1027381;28;797;-60
2021/11/20 01:50:57;;;;;;;;;;;;;;;21.09;35.55;96853.84;1024636;29;773;-56
2021/11/20 01:51:32;;;;;;;;;;;;;;;21.08;35.36;96850.41;1024208;28;719;-60
2021/11/20 01:52:09;;;;;;;;;;;;;;;21.10;35.36;96852.03;1026491;28;786;-61
2021/11/20 01:52:39;;;;;;;;;;;;;;;21.08;35.38;96841.72;1024531;29;1328;-62
2021/11/20 01:53:12;;;;;;;;;;;;;;;21.09;35.43;96843.31;1024500;29;995;-60
2021/11/20 01:54:01;;;;;;;;;;;;;;;21.09;35.63;96843.31;1021741;29;955;-62
2021/11/20 01:54:37;;;;;;;;;;;;;;;21.08;35.57;96842.50;1026106;28;796;-61
2021/11/20 01:55:10;;;;;;;;;;;;;;;21.08;35.51;96848.84;1023037;29;1179;-62
2021/11/20 01:55:50;;;;;;;;;;;;;;;21.08;35.38;96850.41;1023282;29;857;-61
2021/11/20 01:56:25;;;;;;;;;;;;;;;21.08;35.43;96847.78;1023931;29;794;-60
2021/11/20 01:57:14;;;;;;;;;;;;;;;21.08;35.68;96843.56;1026802;28;947;-57
2021/11/20 01:58:13;;;;;;;;;;;;;;;21.08;35.69;96847.78;1020198;29;968;-60
2021/11/20 01:59:10;;;;;;;;;;;;;;;21.08;35.62;96841.72;1018746;29;1138;-60
2021/11/20 01:59:44;;;;;;;;;;;;;;;21.07;35.39;96845.41;1020531;29;1010;-58
2021/11/20 02:00:23;;;;;;;;;;;;;;;21.09;35.60;96845.94;1024239;29;875;-61
2021/11/20 02:01:05;;;;;;;;;;;;;;;21.08;35.39;96843.56;1032904;28;844;-61
2021/11/20 02:01:42;;;;;;;;;;;;;;;21.10;35.74;96833.56;1028485;28;1985;-60
2021/11/20 02:02:15;;;;;;;;;;;;;;;21.07;35.40;96845.41;1024222;29;1093;-61
2021/11/20 02:02:45;;;;;;;;;;;;;;;21.08;35.45;96842.50;1023793;29;1017;-58
2021/11/20 02:03:22;;;;;;;;;;;;;;;21.08;35.58;96836.47;1025717;28;739;-61
2021/11/20 02:03:55;;;;;;;;;;;;;;;21.08;35.55;96837.22;1025987;28;754;-59
2021/11/20 02:04:30;;;;;;;;;;;;;;;21.08;35.80;96835.66;1024001;29;792;-60
2021/11/20 02:05:03;;;;;;;;;;;;;;;21.09;35.53;96832.75;1020342;29;1376;-59
2021/11/20 02:05:37;;;;;;;;;;;;;;;21.08;35.82;96833.03;1017498;29;1517;-60
2021/11/20 02:06:10;;;;;;;;;;;;;;;21.08;35.71;96835.66;1016120;29;845;-60
2021/11/20 02:06:59;;;;;;;;;;;;;;;21.08;35.53;96831.19;1017940;29;706;-58
2021/11/20 02:07:30;;;;;;;;;;;;;;;21.08;35.67;96831.97;1026828;28;798;-60
2021/11/20 02:08:20;;;;;;;;;;;;;;;21.09;35.53;96840.66;1028037;28;1328;-61
2021/11/20 02:09:30;;;;;;;;;;;;;;;21.09;35.68;96838.03;1020727;29;839;-60
2021/11/20 02:10:28;;;;;;;;;;;;;;;21.08;35.65;96834.59;1026553;28;1175;-59
2021/11/20 02:11:01;;;;;;;;;;;;;;;21.08;35.67;96829.31;1028817;28;801;-60
2021/11/20 02:11:33;;;;;;;;;;;;;;;21.08;35.74;96837.22;1028599;28;864;-59
2021/11/20 02:12:05;;;;;;;;;;;;;;;21.07;35.32;96826.94;1019996;29;1205;-59
2021/11/20 02:12:40;;;;;;;;;;;;;;;21.08;35.70;96825.13;1024315;29;829;-60
2021/11/20 02:13:12;;;;;;;;;;;;;;;21.07;35.58;96824.31;1024328;29;778;-61
2021/11/20 02:14:03;;;;;;;;;;;;;;;21.08;35.40;96825.13;1028136;28;1170;-60
2021/11/20 02:14:53;;;;;;;;;;;;;;;21.08;35.41;96825.13;1022275;29;1214;-59
2021/11/20 02:15:27;;;;;;;;;;;;;;;21.08;35.76;96819.84;1021577;29;1216;-60
2021/11/20 02:16:00;;;;;;;;;;;;;;;21.08;35.56;96821.41;1024574;29;892;-60
2021/11/20 02:16:35;;;;;;;;;;;;;;;21.08;35.29;96827.75;1027773;28;1351;-59
2021/11/20 02:17:28;;;;;;;;;;;;;;;21.10;35.54;96825.66;1028243;28;1193;-60
2021/11/20 02:18:19;;;;;;;;;;;;;;;21.08;35.54;96826.69;1026430;28;867;-60
2021/11/20 02:19:13;;;;;;;;;;;;;;;21.08;35.51;96819.84;1024214;29;1042;-60
2021/11/20 02:19:44;;;;;;;;;;;;;;;21.09;35.58;96816.94;1026519;28;829;-60
2021/11/20 02:20:35;;;;;;;;;;;;;;;21.08;35.58;96824.06;1028069;28;790;-60
2021/11/20 02:21:34;;;;;;;;;;;;;;;21.08;35.79;96821.41;1015516;29;1807;-60
2021/11/20 02:22:24;;;;;;;;;;;;;;;21.08;35.48;96817.19;1029962;28;1074;-58
2021/11/20 02:23:14;;;;;;;;;;;;;;;21.06;35.41;96815.59;1032698;28;814;-60
2021/11/20 02:23:52;;;;;;;;;;;;;;;21.08;35.39;96811.94;1032936;28;864;-60
2021/11/20 02:24:22;;;;;;;;;;;;;;;21.07;35.59;96811.13;1032042;28;794;-60
2021/11/20 02:24:53;;;;;;;;;;;;;;;21.08;35.36;96811.94;1032618;28;1305;-61
2021/11/20 02:25:23;;;;;;;;;;;;;;;21.07;35.56;96813.75;1032371;28;778;-59
2021/11/20 02:25:55;;;;;;;;;;;;;;;21.06;35.32;96807.69;1032664;28;765;-59
2021/11/20 02:26:45;;;;;;;;;;;;;;;21.06;35.37;96810.31;1029918;28;1188;-61
2021/11/20 02:27:43;;;;;;;;;;;;;;;21.06;35.40;96802.41;1030018;28;1169;-58
2021/11/20 02:28:13;;;;;;;;;;;;;;;21.06;35.64;96807.69;1028610;28;793;-60
2021/11/20 02:28:45;;;;;;;;;;;;;;;21.08;35.53;96806.66;1024205;29;1324;-60
2021/11/20 02:29:47;;;;;;;;;;;;;;;21.08;35.65;96804.03;1024173;29;1211;-61
2021/11/20 02:30:37;;;;;;;;;;;;;;;21.08;35.57;96811.94;1028781;28;1031;-59
2021/11/20 02:31:28;;;;;;;;;;;;;;;21.06;35.48;96810.31;1030368;28;1070;-60
2021/11/20 02:32:19;;;;;;;;;;;;;;;21.07;35.40;96800.59;1032147;28;1128;-58
2021/11/20 02:32:51;;;;;;;;;;;;;;;21.08;35.58;96805.59;1027549;28;915;-60
2021/11/20 02:33:22;;;;;;;;;;;;;;;21.08;35.29;96805.59;1020356;29;1451;-60
2021/11/20 02:33:52;;;;;;;;;;;;;;;21.08;35.57;96804.03;1020075;29;1316;-58
2021/11/20 02:34:23;;;;;;;;;;;;;;;21.06;35.39;96797.16;1020124;29;830;-60
2021/11/20 02:35:14;;;;;;;;;;;;;;;21.08;35.30;96798.75;1027058;28;1385;-60
2021/11/20 02:36:08;;;;;;;;;;;;;;;21.06;35.19;96794.50;1032313;28;795;-59
2021/11/20 02:36:54;;;;;;;;;;;;;;;21.06;35.01;96799.78;1020443;29;1497;-60
2021/11/20 02:37:24;;;;;;;;;;;;;;;21.08;35.53;96798.75;1022463;29;783;-60
2021/11/20 02:37:54;;;;;;;;;;;;;;;21.07;35.28;96803.22;1024125;29;1376;-61
2021/11/20 02:38:26;;;;;;;;;;;;;;;21.06;35.55;96791.88;1018397;29;1359;-58
2021/11/20 02:38:59;;;;;;;;;;;;;;;21.06;35.43;96797.16;1019917;29;938;-60
2021/11/20 02:39:49;;;;;;;;;;;;;;;21.07;35.26;96797.94;1021380;29;1102;-59
2021/11/20 02:40:40;;;;;;;;;;;;;;;21.06;35.27;96802.41;1029324;28;886;-59
2021/11/20 02:41:12;;;;;;;;;;;;;;;21.07;35.47;96795.31;1032571;28;828;-61
2021/11/20 02:41:44;;;;;;;;;;;;;;;21.06;35.46;96791.88;1028163;28;1977;-60
2021/11/20 02:42:16;;;;;;;;;;;;;;;21.08;35.74;96796.13;1023975;29;801;-61
2021/11/20 02:42:46;;;;;;;;;;;;;;;21.08;35.63;96793.47;1023941;29;1130;-60
2021/11/20 02:43:17;;;;;;;;;;;;;;;21.07;35.39;96792.66;1024905;28;793;-61
2021/11/20 02:43:49;;;;;;;;;;;;;;;21.07;35.48;96792.66;1028614;28;991;-60
2021/11/20 02:44:20;;;;;;;;;;;;;;;21.06;35.59;96794.50;1028143;28;999;-61
2021/11/20 02:44:50;;;;;;;;;;;;;;;21.05;35.62;96792.94;1024143;29;1289;-59
2021/11/20 02:45:22;;;;;;;;;;;;;;;21.06;35.46;96797.16;1024322;29;714;-60
2021/11/20 02:45:53;;;;;;;;;;;;;;;21.05;35.14;96789.50;1024188;28;817;-59
2021/11/20 02:46:24;;;;;;;;;;;;;;;21.05;35.68;96790.28;1028394;28;801;-59
2021/11/20 02:46:56;;;;;;;;;;;;;;;21.05;35.26;96785.03;1024458;29;879;-61
2021/11/20 02:47:34;;;;;;;;;;;;;;;21.06;35.68;96791.88;1024805;28;852;-60
2021/11/20 02:48:05;;;;;;;;;;;;;;;21.06;35.57;96786.59;1023883;29;817;-59
2021/11/20 02:48:37;;;;;;;;;;;;;;;21.05;35.29;96781.59;1025847;28;791;-60
2021/11/20 02:49:07;;;;;;;;;;;;;;;21.06;35.20;96785.81;1028453;28;885;-60
2021/11/20 02:49:38;;;;;;;;;;;;;;;21.05;35.41;96787.66;1028551;28;1027;-60
2021/11/20 02:50:08;;;;;;;;;;;;;;;21.05;35.56;96785.03;1032895;28;865;-57
2021/11/20 02:50:38;;;;;;;;;;;;;;;21.05;35.43;96787.66;1032342;28;821;-59
2021/11/20 02:51:10;;;;;;;;;;;;;;;21.05;35.25;96785.03;1031844;28;851;-60
2021/11/20 02:51:43;;;;;;;;;;;;;;;21.06;35.56;96785.81;1032494;28;766;-60
2021/11/20 02:52:14;;;;;;;;;;;;;;;21.06;35.43;96788.47;1032441;28;806;-61
2021/11/20 02:52:44;;;;;;;;;;;;;;;21.05;35.30;96782.38;1032577;28;815;-60
2021/11/20 02:53:21;;;;;;;;;;;;;;;21.05;35.30;96779.75;1032804;28;939;-60
2021/11/20 02:53:55;;;;;;;;;;;;;;;21.06;35.45;96783.19;1028062;28;983;-61
2021/11/20 02:54:26;;;;;;;;;;;;;;;21.06;35.50;96775.28;1027871;28;742;-60
2021/11/20 02:54:56;;;;;;;;;;;;;;;21.06;35.45;96775.28;1027885;28;1202;-61
2021/11/20 02:55:26;;;;;;;;;;;;;;;21.07;35.58;96782.13;1028917;28;793;-60
2021/11/20 02:55:57;;;;;;;;;;;;;;;21.06;35.40;96770.78;1032107;28;797;-61
2021/11/20 02:56:28;;;;;;;;;;;;;;;21.06;35.23;96780.56;1024007;29;818;-60
2021/11/20 02:56:59;;;;;;;;;;;;;;;21.06;35.46;96776.06;1024622;29;1016;-60
2021/11/20 02:57:30;;;;;;;;;;;;;;;21.05;35.21;96777.13;1023723;29;1094;-60
2021/11/20 02:58:01;;;;;;;;;;;;;;;21.05;35.48;96774.47;1024256;28;1015;-59
2021/11/20 02:58:32;;;;;;;;;;;;;;;21.06;35.34;96770.00;1028404;28;797;-60
2021/11/20 02:59:02;;;;;;;;;;;;;;;21.05;35.59;96774.47;1028490;28;821;-60
2021/11/20 02:59:33;;;;;;;;;;;;;;;21.06;35.36;96776.06;1028540;28;782;-60